sensor_id;sensor_type;location;lat;lon;timestamp;pressure;altitude;pressure_sealevel;temperature;humidity
75089;BME280;63673;49.928;8.150;2023-04-24T00:00:22;979.16;;;9.01;100
75089;BME280;63673;49.928;8.150;2023-04-24T00:02:24;979.14;;;9.01;100
75089;BME280;63673;49.928;8.150;2023-04-24T00:03:26;979.06;;;9.01;100
75089;BME280;63673;49.928;8.150;2023-04-24T00:04:27;979.08;;;9.02;100
75089;BME280;63673;49.928;8.150;2023-04-24T00:05:29;979.1;;;9.01;100
75089;BME280;63673;49.928;8.150;2023-04-24T00:06:31;979.09;;;9;100
75089;BME280;63673;49.928;8.150;2023-04-24T00:07:32;979.09;;;9.01;100
75089;BME280;63673;49.928;8.150;2023-04-24T00:08:34;979.06;;;9.01;100
75089;BME280;63673;49.928;8.150;2023-04-24T00:09:36;979.09;;;9.01;100
75089;BME280;63673;49.928;8.150;2023-04-24T00:10:37;979.14;;;9;100
75089;BME280;63673;49.928;8.150;2023-04-24T00:11:39;979.12;;;9;100
75089;BME280;63673;49.928;8.150;2023-04-24T00:12:41;979.11;;;9;100
75089;BME280;63673;49.928;8.150;2023-04-24T00:13:43;979.05;;;9;100
75089;BME280;63673;49.928;8.150;2023-04-24T00:14:44;979.07;;;8.99;100
75089;BME280;63673;49.928;8.150;2023-04-24T00:15:46;979.05;;;9;100
75089;BME280;63673;49.928;8.150;2023-04-24T00:16:48;979.05;;;9;100
75089;BME280;63673;49.928;8.150;2023-04-24T00:17:50;979.04;;;9.02;100
75089;BME280;63673;49.928;8.150;2023-04-24T00:18:51;978.98;;;9.01;100
75089;BME280;63673;49.928;8.150;2023-04-24T00:19:53;979;;;9.03;100
75089;BME280;63673;49.928;8.150;2023-04-24T00:20:55;979.03;;;9.03;100
75089;BME280;63673;49.928;8.150;2023-04-24T00:21:57;978.97;;;9.04;100
75089;BME280;63673;49.928;8.150;2023-04-24T00:22:58;978.99;;;9.05;100
75089;BME280;63673;49.928;8.150;2023-04-24T00:24:00;978.9;;;9.06;100
75089;BME280;63673;49.928;8.150;2023-04-24T00:25:02;978.98;;;9.07;100
75089;BME280;63673;49.928;8.150;2023-04-24T00:26:04;978.97;;;9.07;100
75089;BME280;63673;49.928;8.150;2023-04-24T00:27:05;978.92;;;9.07;100
75089;BME280;63673;49.928;8.150;2023-04-24T00:28:07;978.89;;;9.06;100
75089;BME280;63673;49.928;8.150;2023-04-24T00:29:09;978.91;;;9.07;100
75089;BME280;63673;49.928;8.150;2023-04-24T00:30:10;978.9;;;9.05;100
75089;BME280;63673;49.928;8.150;2023-04-24T00:31:12;978.87;;;9.04;100
75089;BME280;63673;49.928;8.150;2023-04-24T00:32:14;978.86;;;9.03;100
75089;BME280;63673;49.928;8.150;2023-04-24T00:33:16;978.9;;;9;100
75089;BME280;63673;49.928;8.150;2023-04-24T00:34:17;978.87;;;8.99;100
75089;BME280;63673;49.928;8.150;2023-04-24T00:35:19;978.86;;;8.98;100
75089;BME280;63673;49.928;8.150;2023-04-24T00:36:21;978.88;;;8.96;100
75089;BME280;63673;49.928;8.150;2023-04-24T00:37:22;978.87;;;8.94;100
75089;BME280;63673;49.928;8.150;2023-04-24T00:38:24;978.86;;;8.92;100
75089;BME280;63673;49.928;8.150;2023-04-24T00:39:26;978.83;;;8.9;100
75089;BME280;63673;49.928;8.150;2023-04-24T00:40:28;978.86;;;8.89;100
75089;BME280;63673;49.928;8.150;2023-04-24T00:41:29;978.79;;;8.88;100
75089;BME280;63673;49.928;8.150;2023-04-24T00:42:31;978.8;;;8.85;100
75089;BME280;63673;49.928;8.150;2023-04-24T00:43:33;978.76;;;8.85;100
75089;BME280;63673;49.928;8.150;2023-04-24T00:44:35;978.75;;;8.84;100
75089;BME280;63673;49.928;8.150;2023-04-24T00:45:36;978.69;;;8.83;100
75089;BME280;63673;49.928;8.150;2023-04-24T00:46:38;978.76;;;8.81;100
75089;BME280;63673;49.928;8.150;2023-04-24T00:47:40;978.74;;;8.8;100
75089;BME280;63673;49.928;8.150;2023-04-24T00:48:42;978.7;;;8.8;100
75089;BME280;63673;49.928;8.150;2023-04-24T00:49:43;978.7;;;8.79;100
75089;BME280;63673;49.928;8.150;2023-04-24T00:50:45;978.66;;;8.77;100
75089;BME280;63673;49.928;8.150;2023-04-24T00:51:47;978.64;;;8.77;100
75089;BME280;63673;49.928;8.150;2023-04-24T00:52:49;978.67;;;8.76;100
75089;BME280;63673;49.928;8.150;2023-04-24T00:53:50;978.65;;;8.75;100
75089;BME280;63673;49.928;8.150;2023-04-24T00:54:52;978.67;;;8.74;100
75089;BME280;63673;49.928;8.150;2023-04-24T00:55:54;978.68;;;8.73;100
75089;BME280;63673;49.928;8.150;2023-04-24T00:56:55;978.68;;;8.73;100
75089;BME280;63673;49.928;8.150;2023-04-24T00:57:57;978.6;;;8.73;100
75089;BME280;63673;49.928;8.150;2023-04-24T00:58:59;978.62;;;8.72;100
75089;BME280;63673;49.928;8.150;2023-04-24T01:00:01;978.62;;;8.72;100
75089;BME280;63673;49.928;8.150;2023-04-24T01:01:02;978.59;;;8.73;100
75089;BME280;63673;49.928;8.150;2023-04-24T01:02:04;978.58;;;8.74;100
75089;BME280;63673;49.928;8.150;2023-04-24T01:03:06;978.6;;;8.77;100
75089;BME280;63673;49.928;8.150;2023-04-24T01:04:08;978.6;;;8.77;100
75089;BME280;63673;49.928;8.150;2023-04-24T01:05:09;978.57;;;8.8;100
75089;BME280;63673;49.928;8.150;2023-04-24T01:06:11;978.59;;;8.84;100
75089;BME280;63673;49.928;8.150;2023-04-24T01:07:13;978.59;;;8.87;100
75089;BME280;63673;49.928;8.150;2023-04-24T01:08:15;978.53;;;8.88;100
75089;BME280;63673;49.928;8.150;2023-04-24T01:09:16;978.6;;;8.91;100
75089;BME280;63673;49.928;8.150;2023-04-24T01:10:18;978.57;;;8.95;100
75089;BME280;63673;49.928;8.150;2023-04-24T01:11:20;978.53;;;8.97;100
75089;BME280;63673;49.928;8.150;2023-04-24T01:12:21;978.56;;;9;100
75089;BME280;63673;49.928;8.150;2023-04-24T01:13:23;978.52;;;9.02;100
75089;BME280;63673;49.928;8.150;2023-04-24T01:14:25;978.54;;;9.05;100
75089;BME280;63673;49.928;8.150;2023-04-24T01:15:27;978.55;;;9.06;100
75089;BME280;63673;49.928;8.150;2023-04-24T01:16:28;978.57;;;9.09;100
75089;BME280;63673;49.928;8.150;2023-04-24T01:17:30;978.52;;;9.11;100
75089;BME280;63673;49.928;8.150;2023-04-24T01:18:32;978.54;;;9.13;100
75089;BME280;63673;49.928;8.150;2023-04-24T01:19:34;978.55;;;9.15;100
75089;BME280;63673;49.928;8.150;2023-04-24T01:20:35;978.55;;;9.16;100
75089;BME280;63673;49.928;8.150;2023-04-24T01:21:37;978.56;;;9.18;100
75089;BME280;63673;49.928;8.150;2023-04-24T01:22:39;978.58;;;9.2;100
75089;BME280;63673;49.928;8.150;2023-04-24T01:23:41;978.52;;;9.2;100
75089;BME280;63673;49.928;8.150;2023-04-24T01:24:42;978.56;;;9.21;100
75089;BME280;63673;49.928;8.150;2023-04-24T01:25:44;978.57;;;9.23;100
75089;BME280;63673;49.928;8.150;2023-04-24T01:26:46;978.54;;;9.24;100
75089;BME280;63673;49.928;8.150;2023-04-24T01:27:48;978.54;;;9.25;100
75089;BME280;63673;49.928;8.150;2023-04-24T01:28:49;978.6;;;9.26;100
75089;BME280;63673;49.928;8.150;2023-04-24T01:29:51;978.59;;;9.27;100
75089;BME280;63673;49.928;8.150;2023-04-24T01:30:53;978.64;;;9.29;100
75089;BME280;63673;49.928;8.150;2023-04-24T01:31:54;978.64;;;9.3;100
75089;BME280;63673;49.928;8.150;2023-04-24T01:32:56;978.64;;;9.31;100
75089;BME280;63673;49.928;8.150;2023-04-24T01:33:58;978.65;;;9.33;100
75089;BME280;63673;49.928;8.150;2023-04-24T01:35:00;978.66;;;9.35;100
75089;BME280;63673;49.928;8.150;2023-04-24T01:36:01;978.66;;;9.37;100
75089;BME280;63673;49.928;8.150;2023-04-24T01:37:03;978.69;;;9.4;100
75089;BME280;63673;49.928;8.150;2023-04-24T01:38:05;978.59;;;9.42;100
75089;BME280;63673;49.928;8.150;2023-04-24T01:39:07;978.62;;;9.43;100
75089;BME280;63673;49.928;8.150;2023-04-24T01:40:08;978.62;;;9.45;100
75089;BME280;63673;49.928;8.150;2023-04-24T01:41:10;978.68;;;9.47;100
75089;BME280;63673;49.928;8.150;2023-04-24T01:42:12;978.68;;;9.5;100
75089;BME280;63673;49.928;8.150;2023-04-24T01:43:13;978.64;;;9.5;100
75089;BME280;63673;49.928;8.150;2023-04-24T01:44:15;978.63;;;9.52;100
75089;BME280;63673;49.928;8.150;2023-04-24T01:45:17;978.69;;;9.52;100
75089;BME280;63673;49.928;8.150;2023-04-24T01:46:19;978.67;;;9.51;100
75089;BME280;63673;49.928;8.150;2023-04-24T01:47:20;978.67;;;9.51;100
75089;BME280;63673;49.928;8.150;2023-04-24T01:48:22;978.68;;;9.51;100
75089;BME280;63673;49.928;8.150;2023-04-24T01:49:24;978.65;;;9.5;100
75089;BME280;63673;49.928;8.150;2023-04-24T01:50:26;978.67;;;9.48;100
75089;BME280;63673;49.928;8.150;2023-04-24T01:51:27;978.68;;;9.47;100
75089;BME280;63673;49.928;8.150;2023-04-24T01:52:29;978.75;;;9.46;100
75089;BME280;63673;49.928;8.150;2023-04-24T01:53:31;978.72;;;9.46;100
75089;BME280;63673;49.928;8.150;2023-04-24T01:54:33;978.75;;;9.46;100
75089;BME280;63673;49.928;8.150;2023-04-24T01:55:34;978.76;;;9.46;100
75089;BME280;63673;49.928;8.150;2023-04-24T01:56:36;978.75;;;9.46;100
75089;BME280;63673;49.928;8.150;2023-04-24T01:57:38;978.73;;;9.45;100
75089;BME280;63673;49.928;8.150;2023-04-24T01:58:39;978.72;;;9.45;100
75089;BME280;63673;49.928;8.150;2023-04-24T01:59:41;978.77;;;9.46;100
75089;BME280;63673;49.928;8.150;2023-04-24T02:00:43;978.74;;;9.45;100
75089;BME280;63673;49.928;8.150;2023-04-24T02:01:45;978.76;;;9.45;100
75089;BME280;63673;49.928;8.150;2023-04-24T02:02:46;978.78;;;9.45;100
75089;BME280;63673;49.928;8.150;2023-04-24T02:03:48;978.73;;;9.45;100
75089;BME280;63673;49.928;8.150;2023-04-24T02:04:50;978.73;;;9.44;100
75089;BME280;63673;49.928;8.150;2023-04-24T02:05:52;978.75;;;9.43;100
75089;BME280;63673;49.928;8.150;2023-04-24T02:06:53;978.77;;;9.43;100
75089;BME280;63673;49.928;8.150;2023-04-24T02:07:55;978.75;;;9.43;100
75089;BME280;63673;49.928;8.150;2023-04-24T02:08:57;978.78;;;9.42;100
75089;BME280;63673;49.928;8.150;2023-04-24T02:09:59;978.78;;;9.41;100
75089;BME280;63673;49.928;8.150;2023-04-24T02:11:00;978.78;;;9.4;100
75089;BME280;63673;49.928;8.150;2023-04-24T02:12:02;978.82;;;9.39;100
75089;BME280;63673;49.928;8.150;2023-04-24T02:13:04;978.76;;;9.38;100
75089;BME280;63673;49.928;8.150;2023-04-24T02:14:06;978.72;;;9.36;100
75089;BME280;63673;49.928;8.150;2023-04-24T02:15:07;978.77;;;9.35;100
75089;BME280;63673;49.928;8.150;2023-04-24T02:16:09;978.78;;;9.35;100
75089;BME280;63673;49.928;8.150;2023-04-24T02:17:11;978.86;;;9.33;100
75089;BME280;63673;49.928;8.150;2023-04-24T02:18:12;978.81;;;9.32;100
75089;BME280;63673;49.928;8.150;2023-04-24T02:19:14;978.78;;;9.31;100
75089;BME280;63673;49.928;8.150;2023-04-24T02:20:16;978.79;;;9.29;100
75089;BME280;63673;49.928;8.150;2023-04-24T02:21:18;978.83;;;9.28;100
75089;BME280;63673;49.928;8.150;2023-04-24T02:22:19;978.82;;;9.27;100
75089;BME280;63673;49.928;8.150;2023-04-24T02:23:21;978.79;;;9.26;100
75089;BME280;63673;49.928;8.150;2023-04-24T02:24:23;978.85;;;9.26;100
75089;BME280;63673;49.928;8.150;2023-04-24T02:25:25;978.87;;;9.25;100
75089;BME280;63673;49.928;8.150;2023-04-24T02:26:26;978.89;;;9.24;100
75089;BME280;63673;49.928;8.150;2023-04-24T02:27:28;978.9;;;9.24;100
75089;BME280;63673;49.928;8.150;2023-04-24T02:28:30;978.87;;;9.24;100
75089;BME280;63673;49.928;8.150;2023-04-24T02:29:32;978.89;;;9.24;100
75089;BME280;63673;49.928;8.150;2023-04-24T02:30:33;978.85;;;9.25;100
75089;BME280;63673;49.928;8.150;2023-04-24T02:31:35;978.81;;;9.24;100
75089;BME280;63673;49.928;8.150;2023-04-24T02:32:37;978.9;;;9.25;100
75089;BME280;63673;49.928;8.150;2023-04-24T02:33:38;978.91;;;9.25;100
75089;BME280;63673;49.928;8.150;2023-04-24T02:34:40;978.9;;;9.25;100
75089;BME280;63673;49.928;8.150;2023-04-24T02:35:42;978.92;;;9.25;100
75089;BME280;63673;49.928;8.150;2023-04-24T02:36:44;978.93;;;9.26;100
75089;BME280;63673;49.928;8.150;2023-04-24T02:37:45;978.96;;;9.26;100
75089;BME280;63673;49.928;8.150;2023-04-24T02:38:47;978.98;;;9.26;100
75089;BME280;63673;49.928;8.150;2023-04-24T02:39:49;978.94;;;9.26;100
75089;BME280;63673;49.928;8.150;2023-04-24T02:40:51;978.98;;;9.27;100
75089;BME280;63673;49.928;8.150;2023-04-24T02:41:52;978.92;;;9.27;100
75089;BME280;63673;49.928;8.150;2023-04-24T02:42:54;978.91;;;9.28;100
75089;BME280;63673;49.928;8.150;2023-04-24T02:43:56;978.89;;;9.27;100
75089;BME280;63673;49.928;8.150;2023-04-24T02:44:58;978.92;;;9.27;100
75089;BME280;63673;49.928;8.150;2023-04-24T02:45:59;978.91;;;9.27;100
75089;BME280;63673;49.928;8.150;2023-04-24T02:47:01;978.92;;;9.28;100
75089;BME280;63673;49.928;8.150;2023-04-24T02:48:03;978.92;;;9.27;100
75089;BME280;63673;49.928;8.150;2023-04-24T02:49:04;978.92;;;9.28;100
75089;BME280;63673;49.928;8.150;2023-04-24T02:50:06;978.91;;;9.28;100
75089;BME280;63673;49.928;8.150;2023-04-24T02:51:08;978.92;;;9.28;100
75089;BME280;63673;49.928;8.150;2023-04-24T02:52:10;978.92;;;9.28;100
75089;BME280;63673;49.928;8.150;2023-04-24T02:53:11;978.9;;;9.29;100
75089;BME280;63673;49.928;8.150;2023-04-24T02:54:13;978.91;;;9.28;100
75089;BME280;63673;49.928;8.150;2023-04-24T02:55:15;978.91;;;9.27;100
75089;BME280;63673;49.928;8.150;2023-04-24T02:56:17;978.87;;;9.28;100
75089;BME280;63673;49.928;8.150;2023-04-24T02:57:18;978.89;;;9.28;100
75089;BME280;63673;49.928;8.150;2023-04-24T02:58:20;978.92;;;9.28;100
75089;BME280;63673;49.928;8.150;2023-04-24T02:59:22;978.92;;;9.28;100
75089;BME280;63673;49.928;8.150;2023-04-24T03:00:24;978.92;;;9.27;100
75089;BME280;63673;49.928;8.150;2023-04-24T03:01:25;978.84;;;9.28;100
75089;BME280;63673;49.928;8.150;2023-04-24T03:02:27;978.83;;;9.28;100
75089;BME280;63673;49.928;8.150;2023-04-24T03:03:29;978.86;;;9.27;100
75089;BME280;63673;49.928;8.150;2023-04-24T03:04:30;978.91;;;9.26;100
75089;BME280;63673;49.928;8.150;2023-04-24T03:05:32;978.93;;;9.26;100
75089;BME280;63673;49.928;8.150;2023-04-24T03:06:34;978.92;;;9.26;100
75089;BME280;63673;49.928;8.150;2023-04-24T03:07:36;978.95;;;9.25;100
75089;BME280;63673;49.928;8.150;2023-04-24T03:08:37;978.99;;;9.25;100
75089;BME280;63673;49.928;8.150;2023-04-24T03:09:39;979;;;9.25;100
75089;BME280;63673;49.928;8.150;2023-04-24T03:10:41;979.02;;;9.25;100
75089;BME280;63673;49.928;8.150;2023-04-24T03:11:43;979.04;;;9.25;100
75089;BME280;63673;49.928;8.150;2023-04-24T03:12:44;979.01;;;9.26;100
75089;BME280;63673;49.928;8.150;2023-04-24T03:13:46;978.95;;;9.25;100
75089;BME280;63673;49.928;8.150;2023-04-24T03:14:48;979;;;9.24;100
75089;BME280;63673;49.928;8.150;2023-04-24T03:15:50;979;;;9.24;100
75089;BME280;63673;49.928;8.150;2023-04-24T03:16:51;978.99;;;9.25;100
75089;BME280;63673;49.928;8.150;2023-04-24T03:17:53;979.02;;;9.25;100
75089;BME280;63673;49.928;8.150;2023-04-24T03:18:55;979.02;;;9.24;100
75089;BME280;63673;49.928;8.150;2023-04-24T03:19:56;979.05;;;9.23;100
75089;BME280;63673;49.928;8.150;2023-04-24T03:20:58;979.09;;;9.22;100
75089;BME280;63673;49.928;8.150;2023-04-24T03:22:01;979.09;;;9.21;100
75089;BME280;63673;49.928;8.150;2023-04-24T03:23:02;979.15;;;9.2;100
75089;BME280;63673;49.928;8.150;2023-04-24T03:24:03;979.14;;;9.17;100
75089;BME280;63673;49.928;8.150;2023-04-24T03:25:05;979.12;;;9.16;100
75089;BME280;63673;49.928;8.150;2023-04-24T03:26:07;979.17;;;9.14;100
75089;BME280;63673;49.928;8.150;2023-04-24T03:27:09;979.18;;;9.13;100
75089;BME280;63673;49.928;8.150;2023-04-24T03:28:10;979.17;;;9.11;100
75089;BME280;63673;49.928;8.150;2023-04-24T03:29:12;979.2;;;9.11;100
75089;BME280;63673;49.928;8.150;2023-04-24T03:30:14;979.16;;;9.07;100
75089;BME280;63673;49.928;8.150;2023-04-24T03:31:16;979.23;;;9.07;100
75089;BME280;63673;49.928;8.150;2023-04-24T03:32:17;979.29;;;9.05;100
75089;BME280;63673;49.928;8.150;2023-04-24T03:33:19;979.28;;;9.04;100
75089;BME280;63673;49.928;8.150;2023-04-24T03:34:21;979.31;;;9.03;100
75089;BME280;63673;49.928;8.150;2023-04-24T03:35:23;979.3;;;9.02;100
75089;BME280;63673;49.928;8.150;2023-04-24T03:36:24;979.33;;;9.01;100
75089;BME280;63673;49.928;8.150;2023-04-24T03:37:26;979.32;;;8.99;100
75089;BME280;63673;49.928;8.150;2023-04-24T03:38:28;979.28;;;8.98;100
75089;BME280;63673;49.928;8.150;2023-04-24T03:39:29;979.37;;;8.97;100
75089;BME280;63673;49.928;8.150;2023-04-24T03:40:31;979.33;;;8.96;100
75089;BME280;63673;49.928;8.150;2023-04-24T03:41:33;979.33;;;8.94;100
75089;BME280;63673;49.928;8.150;2023-04-24T03:42:35;979.36;;;8.92;100
75089;BME280;63673;49.928;8.150;2023-04-24T03:43:36;979.33;;;8.91;100
75089;BME280;63673;49.928;8.150;2023-04-24T03:44:38;979.4;;;8.88;100
75089;BME280;63673;49.928;8.150;2023-04-24T03:45:40;979.41;;;8.86;100
75089;BME280;63673;49.928;8.150;2023-04-24T03:46:42;979.36;;;8.84;100
75089;BME280;63673;49.928;8.150;2023-04-24T03:47:43;979.38;;;8.84;100
75089;BME280;63673;49.928;8.150;2023-04-24T03:48:45;979.46;;;8.81;100
75089;BME280;63673;49.928;8.150;2023-04-24T03:49:47;979.43;;;8.79;100
75089;BME280;63673;49.928;8.150;2023-04-24T03:50:48;979.43;;;8.75;100
75089;BME280;63673;49.928;8.150;2023-04-24T03:51:50;979.45;;;8.73;100
75089;BME280;63673;49.928;8.150;2023-04-24T03:52:52;979.45;;;8.69;100
75089;BME280;63673;49.928;8.150;2023-04-24T03:53:54;979.38;;;8.64;100
75089;BME280;63673;49.928;8.150;2023-04-24T03:54:55;979.48;;;8.59;100
75089;BME280;63673;49.928;8.150;2023-04-24T03:55:57;979.42;;;8.53;100
75089;BME280;63673;49.928;8.150;2023-04-24T03:56:59;979.44;;;8.47;100
75089;BME280;63673;49.928;8.150;2023-04-24T03:58:01;979.48;;;8.43;100
75089;BME280;63673;49.928;8.150;2023-04-24T03:59:02;979.53;;;8.38;100
75089;BME280;63673;49.928;8.150;2023-04-24T04:00:04;979.57;;;8.34;100
75089;BME280;63673;49.928;8.150;2023-04-24T04:01:06;979.53;;;8.28;100
75089;BME280;63673;49.928;8.150;2023-04-24T04:02:08;979.53;;;8.25;100
75089;BME280;63673;49.928;8.150;2023-04-24T04:03:09;979.56;;;8.21;100
75089;BME280;63673;49.928;8.150;2023-04-24T04:04:11;979.55;;;8.14;100
75089;BME280;63673;49.928;8.150;2023-04-24T04:05:13;979.63;;;8.09;100
75089;BME280;63673;49.928;8.150;2023-04-24T04:06:15;979.59;;;8.05;100
75089;BME280;63673;49.928;8.150;2023-04-24T04:07:16;979.63;;;8;100
75089;BME280;63673;49.928;8.150;2023-04-24T04:08:18;979.61;;;7.94;100
75089;BME280;63673;49.928;8.150;2023-04-24T04:09:20;979.62;;;7.9;100
75089;BME280;63673;49.928;8.150;2023-04-24T04:10:21;979.54;;;7.86;100
75089;BME280;63673;49.928;8.150;2023-04-24T04:11:24;979.6;;;7.8;100
75089;BME280;63673;49.928;8.150;2023-04-24T04:12:25;979.62;;;7.76;100
75089;BME280;63673;49.928;8.150;2023-04-24T04:13:27;979.68;;;7.69;100
75089;BME280;63673;49.928;8.150;2023-04-24T04:14:28;979.66;;;7.64;100
75089;BME280;63673;49.928;8.150;2023-04-24T04:15:30;979.7;;;7.58;100
75089;BME280;63673;49.928;8.150;2023-04-24T04:16:32;979.7;;;7.54;100
75089;BME280;63673;49.928;8.150;2023-04-24T04:17:34;979.75;;;7.49;100
75089;BME280;63673;49.928;8.150;2023-04-24T04:18:35;979.71;;;7.44;100
75089;BME280;63673;49.928;8.150;2023-04-24T04:19:37;979.7;;;7.4;100
75089;BME280;63673;49.928;8.150;2023-04-24T04:20:39;979.77;;;7.36;100
75089;BME280;63673;49.928;8.150;2023-04-24T04:21:40;979.73;;;7.32;100
75089;BME280;63673;49.928;8.150;2023-04-24T04:22:42;979.79;;;7.28;100
75089;BME280;63673;49.928;8.150;2023-04-24T04:23:44;979.8;;;7.23;100
75089;BME280;63673;49.928;8.150;2023-04-24T04:24:46;979.79;;;7.17;100
75089;BME280;63673;49.928;8.150;2023-04-24T04:25:47;979.78;;;7.14;100
75089;BME280;63673;49.928;8.150;2023-04-24T04:26:49;979.79;;;7.09;100
75089;BME280;63673;49.928;8.150;2023-04-24T04:27:51;979.82;;;7.06;100
75089;BME280;63673;49.928;8.150;2023-04-24T04:28:53;979.87;;;7.02;100
75089;BME280;63673;49.928;8.150;2023-04-24T04:29:54;979.81;;;6.99;100
75089;BME280;63673;49.928;8.150;2023-04-24T04:30:56;979.79;;;6.95;100
75089;BME280;63673;49.928;8.150;2023-04-24T04:31:58;979.88;;;6.93;100
75089;BME280;63673;49.928;8.150;2023-04-24T04:33:00;979.92;;;6.89;100
75089;BME280;63673;49.928;8.150;2023-04-24T04:34:01;979.9;;;6.85;100
75089;BME280;63673;49.928;8.150;2023-04-24T04:35:03;979.92;;;6.81;100
75089;BME280;63673;49.928;8.150;2023-04-24T04:36:05;979.96;;;6.77;100
75089;BME280;63673;49.928;8.150;2023-04-24T04:37:07;979.96;;;6.74;100
75089;BME280;63673;49.928;8.150;2023-04-24T04:38:29;979.96;;;6.68;100
75089;BME280;63673;49.928;8.150;2023-04-24T04:39:31;979.98;;;6.64;100
75089;BME280;63673;49.928;8.150;2023-04-24T04:43:08;979.94;;;6.55;100
75089;BME280;63673;49.928;8.150;2023-04-24T04:44:10;980.01;;;6.53;100
75089;BME280;63673;49.928;8.150;2023-04-24T04:45:11;980;;;6.5;100
75089;BME280;63673;49.928;8.150;2023-04-24T04:46:13;980.02;;;6.49;100
75089;BME280;63673;49.928;8.150;2023-04-24T04:47:15;980.01;;;6.48;100
75089;BME280;63673;49.928;8.150;2023-04-24T04:48:16;980;;;6.46;100
75089;BME280;63673;49.928;8.150;2023-04-24T04:49:18;980.06;;;6.45;100
75089;BME280;63673;49.928;8.150;2023-04-24T04:50:20;980.07;;;6.44;100
75089;BME280;63673;49.928;8.150;2023-04-24T04:51:22;980.16;;;6.42;100
75089;BME280;63673;49.928;8.150;2023-04-24T04:52:23;980.08;;;6.42;100
75089;BME280;63673;49.928;8.150;2023-04-24T04:53:25;980.05;;;6.4;100
75089;BME280;63673;49.928;8.150;2023-04-24T04:54:27;980.06;;;6.39;100
75089;BME280;63673;49.928;8.150;2023-04-24T04:55:29;980.17;;;6.37;100
75089;BME280;63673;49.928;8.150;2023-04-24T04:56:30;980.18;;;6.36;100
75089;BME280;63673;49.928;8.150;2023-04-24T04:57:32;980.17;;;6.34;100
75089;BME280;63673;49.928;8.150;2023-04-24T04:58:34;980.21;;;6.34;100
75089;BME280;63673;49.928;8.150;2023-04-24T04:59:36;980.23;;;6.33;100
75089;BME280;63673;49.928;8.150;2023-04-24T05:00:37;980.21;;;6.31;100
75089;BME280;63673;49.928;8.150;2023-04-24T05:01:39;980.29;;;6.3;100
75089;BME280;63673;49.928;8.150;2023-04-24T05:02:41;980.3;;;6.28;100
75089;BME280;63673;49.928;8.150;2023-04-24T05:03:43;980.28;;;6.28;100
75089;BME280;63673;49.928;8.150;2023-04-24T05:04:44;980.29;;;6.27;100
75089;BME280;63673;49.928;8.150;2023-04-24T05:05:46;980.34;;;6.27;100
75089;BME280;63673;49.928;8.150;2023-04-24T05:06:48;980.37;;;6.26;100
75089;BME280;63673;49.928;8.150;2023-04-24T05:07:49;980.42;;;6.26;100
75089;BME280;63673;49.928;8.150;2023-04-24T05:08:51;980.43;;;6.25;100
75089;BME280;63673;49.928;8.150;2023-04-24T05:09:53;980.42;;;6.24;100
75089;BME280;63673;49.928;8.150;2023-04-24T05:10:55;980.42;;;6.24;100
75089;BME280;63673;49.928;8.150;2023-04-24T05:11:56;980.41;;;6.23;100
75089;BME280;63673;49.928;8.150;2023-04-24T05:12:58;980.45;;;6.23;100
75089;BME280;63673;49.928;8.150;2023-04-24T05:14:00;980.4;;;6.22;100
75089;BME280;63673;49.928;8.150;2023-04-24T05:15:02;980.43;;;6.22;100
75089;BME280;63673;49.928;8.150;2023-04-24T05:16:03;980.41;;;6.22;100
75089;BME280;63673;49.928;8.150;2023-04-24T05:17:05;980.47;;;6.22;100
75089;BME280;63673;49.928;8.150;2023-04-24T05:18:07;980.41;;;6.23;100
75089;BME280;63673;49.928;8.150;2023-04-24T05:19:08;980.45;;;6.23;100
75089;BME280;63673;49.928;8.150;2023-04-24T05:20:10;980.41;;;6.23;100
75089;BME280;63673;49.928;8.150;2023-04-24T05:21:12;980.51;;;6.23;100
75089;BME280;63673;49.928;8.150;2023-04-24T05:22:14;980.53;;;6.24;100
75089;BME280;63673;49.928;8.150;2023-04-24T05:23:15;980.5;;;6.24;100
75089;BME280;63673;49.928;8.150;2023-04-24T05:24:17;980.55;;;6.25;100
75089;BME280;63673;49.928;8.150;2023-04-24T05:25:19;980.52;;;6.25;100
75089;BME280;63673;49.928;8.150;2023-04-24T05:26:21;980.52;;;6.25;100
75089;BME280;63673;49.928;8.150;2023-04-24T05:27:22;980.59;;;6.24;100
75089;BME280;63673;49.928;8.150;2023-04-24T05:28:24;980.55;;;6.25;100
75089;BME280;63673;49.928;8.150;2023-04-24T05:29:26;980.62;;;6.25;100
75089;BME280;63673;49.928;8.150;2023-04-24T05:30:28;980.59;;;6.26;100
75089;BME280;63673;49.928;8.150;2023-04-24T05:31:29;980.6;;;6.27;100
75089;BME280;63673;49.928;8.150;2023-04-24T05:32:31;980.56;;;6.28;100
75089;BME280;63673;49.928;8.150;2023-04-24T05:33:33;980.53;;;6.29;100
75089;BME280;63673;49.928;8.150;2023-04-24T05:34:34;980.54;;;6.3;100
75089;BME280;63673;49.928;8.150;2023-04-24T05:35:36;980.52;;;6.31;100
75089;BME280;63673;49.928;8.150;2023-04-24T05:36:38;980.56;;;6.33;100
75089;BME280;63673;49.928;8.150;2023-04-24T05:37:40;980.62;;;6.35;100
75089;BME280;63673;49.928;8.150;2023-04-24T05:38:41;980.56;;;6.37;100
75089;BME280;63673;49.928;8.150;2023-04-24T05:39:43;980.63;;;6.39;100
75089;BME280;63673;49.928;8.150;2023-04-24T05:40:45;980.62;;;6.44;100
75089;BME280;63673;49.928;8.150;2023-04-24T05:41:47;980.66;;;6.49;100
75089;BME280;63673;49.928;8.150;2023-04-24T05:42:48;980.69;;;6.53;100
75089;BME280;63673;49.928;8.150;2023-04-24T05:43:50;980.71;;;6.6;100
75089;BME280;63673;49.928;8.150;2023-04-24T05:44:52;980.66;;;6.67;100
75089;BME280;63673;49.928;8.150;2023-04-24T05:45:54;980.7;;;6.75;100
75089;BME280;63673;49.928;8.150;2023-04-24T05:46:55;980.79;;;6.83;100
75089;BME280;63673;49.928;8.150;2023-04-24T05:47:57;980.72;;;6.92;100
75089;BME280;63673;49.928;8.150;2023-04-24T05:48:59;980.78;;;7;100
75089;BME280;63673;49.928;8.150;2023-04-24T05:50:00;980.78;;;7.07;100
75089;BME280;63673;49.928;8.150;2023-04-24T05:51:02;980.8;;;7.14;100
75089;BME280;63673;49.928;8.150;2023-04-24T05:52:04;980.84;;;7.21;100
75089;BME280;63673;49.928;8.150;2023-04-24T05:53:06;980.82;;;7.27;100
75089;BME280;63673;49.928;8.150;2023-04-24T05:54:07;980.87;;;7.34;100
75089;BME280;63673;49.928;8.150;2023-04-24T05:55:09;980.96;;;7.41;100